createdAt,value
2023-03-08T00:01:55.102Z,2.64
2023-03-08T00:06:57.339Z,2.68
2023-03-08T00:12:00.396Z,2.68
2023-03-08T00:17:02.891Z,2.59
2023-03-08T00:22:05.089Z,2.63
2023-03-08T00:27:06.694Z,2.48
2023-03-08T00:32:08.433Z,2.58
2023-03-08T00:37:10.077Z,2.53
2023-03-08T00:42:12.856Z,2.56
2023-03-08T00:47:15.582Z,2.63
2023-03-08T00:52:17.670Z,2.62
2023-03-08T00:57:19.350Z,2.44
2023-03-08T01:02:21.126Z,2.56
2023-03-08T01:07:24.084Z,2.13
2023-03-08T01:12:25.705Z,2.32
2023-03-08T01:17:27.879Z,2.51
2023-03-08T01:22:29.536Z,2.65
2023-03-08T01:27:32.399Z,2.55
2023-03-08T01:32:34.792Z,2.45
2023-03-08T01:37:36.720Z,2.60
2023-03-08T01:42:40.425Z,2.59
2023-03-08T01:47:42.041Z,2.50
2023-03-08T01:52:59.634Z,2.69
2023-03-08T01:58:01.410Z,2.76
2023-03-08T02:03:10.896Z,2.60
2023-03-08T02:08:12.777Z,2.59
2023-03-08T02:13:16.454Z,2.64
2023-03-08T02:18:19.296Z,2.57
2023-03-08T02:23:23.592Z,2.50
2023-03-08T02:28:26.808Z,2.36
2023-03-08T02:33:28.470Z,2.47
2023-03-08T02:38:32.288Z,2.45
2023-03-08T02:43:34.595Z,2.42
2023-03-08T02:48:36.556Z,2.39
2023-03-08T02:53:38.845Z,2.50
2023-03-08T02:58:40.531Z,2.44
2023-03-08T03:03:43.138Z,2.60
2023-03-08T03:08:45.096Z,2.66
2023-03-08T03:13:47.273Z,2.62
2023-03-08T03:18:52.659Z,2.53
2023-03-08T03:23:55.438Z,2.67
2023-03-08T03:29:03.711Z,2.55
2023-03-08T03:34:09.523Z,2.36
2023-03-08T03:39:11.898Z,2.29
2023-03-08T03:44:15.524Z,2.41
2023-03-08T03:49:19.557Z,2.39
2023-03-08T03:54:22.266Z,2.45
2023-03-08T03:59:26.771Z,2.43
2023-03-08T04:04:29.100Z,2.40
2023-03-08T04:09:30.930Z,2.29
2023-03-08T04:14:41.758Z,2.31
2023-03-08T04:19:49.829Z,2.42
2023-03-08T04:24:52.578Z,2.47
2023-03-08T04:30:04.557Z,2.44
2023-03-08T04:35:07.433Z,2.45
2023-03-08T04:40:13.272Z,2.26
2023-03-08T04:45:31.230Z,2.07
2023-03-08T04:50:35.571Z,2.13
2023-03-08T04:55:38.137Z,2.01
2023-03-08T05:00:40.470Z,1.88
2023-03-08T05:05:52.090Z,1.94
2023-03-08T05:11:01.303Z,1.91
2023-03-08T05:16:08.378Z,2.07
2023-03-08T05:21:16.113Z,2.06
2023-03-08T05:26:19.351Z,1.99
2023-03-08T05:31:23.038Z,1.98
2023-03-08T05:36:27.524Z,2.02
2023-03-08T05:41:31.970Z,2.00
2023-03-08T05:46:35.195Z,2.05
2023-03-08T05:51:37.919Z,2.03
2023-03-08T05:56:40.272Z,2.02
2023-03-08T06:01:48.892Z,2.04
2023-03-08T06:07:01.086Z,2.04
2023-03-08T06:12:09.185Z,1.99
2023-03-08T06:17:11.455Z,2.04
2023-03-08T06:22:17.809Z,1.88
2023-03-08T06:27:20.679Z,1.91
2023-03-08T06:32:24.259Z,2.08
2023-03-08T06:37:26.922Z,1.99
2023-03-08T06:42:40.629Z,1.91
2023-03-08T06:47:45.230Z,1.88
2023-03-08T06:52:48.151Z,1.78
2023-03-08T06:57:55.577Z,1.83
2023-03-08T07:02:57.210Z,1.90
2023-03-08T07:07:58.861Z,1.96
2023-03-08T07:13:00.710Z,1.96
2023-03-08T07:18:02.307Z,1.92
2023-03-08T07:23:04.213Z,2.00
2023-03-08T07:28:06.134Z,1.92
2023-03-08T07:33:07.754Z,1.70
2023-03-08T07:38:14.860Z,1.75
2023-03-08T07:43:16.533Z,1.82
2023-03-08T07:48:29.968Z,1.97
2023-03-08T07:53:31.697Z,2.03
2023-03-08T07:58:33.418Z,1.98
2023-03-08T08:03:35.128Z,1.92
2023-03-08T08:08:36.825Z,2.17
2023-03-08T08:13:38.490Z,2.10
2023-03-08T08:18:40.415Z,2.16
2023-03-08T08:24:05.067Z,2.40
2023-03-08T08:29:07.997Z,2.50
2023-03-08T08:34:18.357Z,2.52
2023-03-08T08:39:27.020Z,2.60
2023-03-08T08:44:28.759Z,2.60
2023-03-08T08:49:30.381Z,2.77
2023-03-08T08:54:33.843Z,2.97
2023-03-08T08:59:35.625Z,2.95
2023-03-08T09:04:37.332Z,2.92
2023-03-08T09:09:38.986Z,3.11
2023-03-08T09:14:40.633Z,3.20
2023-03-08T09:19:42.349Z,3.23
2023-03-08T09:24:45.867Z,3.20
2023-03-08T09:29:47.477Z,3.30
2023-03-08T09:34:49.241Z,3.48
2023-03-08T09:39:51.753Z,3.82
2023-03-08T09:45:21.297Z,4.03
2023-03-08T09:50:33.532Z,3.94
2023-03-08T09:55:44.597Z,4.01
2023-03-08T10:00:46.899Z,4.28
2023-03-08T10:06:17.056Z,4.75
2023-03-08T10:11:28.612Z,4.82
2023-03-08T10:16:45.594Z,4.88
2023-03-08T10:21:48.056Z,4.44
2023-03-08T10:26:49.718Z,4.34
2023-03-08T10:31:51.449Z,4.61
2023-03-08T10:36:58.630Z,4.59
2023-03-08T10:42:06.339Z,4.65
2023-03-08T10:47:17.213Z,4.16
2023-03-08T10:52:29.019Z,4.27
2023-03-08T10:57:31.287Z,4.00
2023-03-08T11:02:33.157Z,4.10
2023-03-08T11:07:35.531Z,4.08
2023-03-08T11:12:37.882Z,4.05
2023-03-08T11:17:47.574Z,3.79
2023-03-08T11:23:12.247Z,4.01
2023-03-08T11:28:29.588Z,3.91
2023-03-08T11:33:37.559Z,4.21
2023-03-08T11:38:39.661Z,4.17
2023-03-08T11:44:09.414Z,4.48
2023-03-08T11:49:13.712Z,4.45
2023-03-08T11:54:33.914Z,4.50
2023-03-08T11:59:40.006Z,4.55
2023-03-08T12:05:09.205Z,4.67
2023-03-08T12:10:13.766Z,4.59
2023-03-08T12:15:26.731Z,4.36
2023-03-08T12:20:35.282Z,4.26
2023-03-08T12:25:40.604Z,4.24
2023-03-08T12:30:51.142Z,4.08
2023-03-08T12:36:01.582Z,4.20
2023-03-08T12:41:05.444Z,4.18
2023-03-08T12:46:09.964Z,4.16
2023-03-08T12:51:14.678Z,4.32
2023-03-08T12:56:29.805Z,4.20
2023-03-08T13:01:40.356Z,4.32
2023-03-08T13:07:06.480Z,4.27
2023-03-08T13:12:16.895Z,4.29
2023-03-08T13:17:30.500Z,4.70
2023-03-08T13:22:55.355Z,4.67
2023-03-08T13:28:13.366Z,4.64
2023-03-08T13:33:36.644Z,4.66
2023-03-08T13:38:38.347Z,4.53
2023-03-08T13:43:39.969Z,4.68
2023-03-08T13:48:44.299Z,4.74
2023-03-08T13:53:46.741Z,4.81
2023-03-08T13:58:50.662Z,4.67
2023-03-08T14:03:56.181Z,4.57
2023-03-08T14:09:03.757Z,4.41
2023-03-08T14:14:10.502Z,4.43
2023-03-08T14:19:15.264Z,4.49
2023-03-08T14:24:24.229Z,4.42
2023-03-08T14:29:36.593Z,4.64
2023-03-08T14:34:46.506Z,4.64
2023-03-08T14:39:52.114Z,4.40
2023-03-08T14:45:00.165Z,4.61
2023-03-08T14:50:20.207Z,4.56
2023-03-08T14:55:26.806Z,4.52
2023-03-08T15:00:29.835Z,4.51
2023-03-08T15:05:31.957Z,4.29
2023-03-08T15:10:39.973Z,4.36
2023-03-08T15:15:42.138Z,4.45
2023-03-08T15:20:46.171Z,3.99
2023-03-08T15:25:48.259Z,3.89
2023-03-08T15:30:52.896Z,3.77
2023-03-08T15:35:54.885Z,3.76
2023-03-08T15:40:56.548Z,3.64
2023-03-08T15:45:58.216Z,3.55
2023-03-08T15:51:00.096Z,3.47
2023-03-08T15:56:01.772Z,3.59
2023-03-08T16:01:05.015Z,3.69
2023-03-08T16:06:10.983Z,3.69
2023-03-08T16:11:16.029Z,3.90
2023-03-08T16:16:18.314Z,3.73
2023-03-08T16:21:20.045Z,3.73
2023-03-08T16:26:21.921Z,3.76
2023-03-08T16:31:23.816Z,3.77
2023-03-08T16:36:25.559Z,3.55
2023-03-08T16:41:29.307Z,3.69
2023-03-08T16:46:30.988Z,3.94
2023-03-08T16:51:32.789Z,3.84
2023-03-08T16:56:34.681Z,3.75
2023-03-08T17:01:36.314Z,3.44
2023-03-08T17:06:39.084Z,3.47
2023-03-08T17:11:42.485Z,3.49
2023-03-08T17:16:44.190Z,3.28
2023-03-08T17:21:45.933Z,3.33
2023-03-08T17:26:50.739Z,3.39
2023-03-08T17:31:52.574Z,3.29
2023-03-08T17:36:54.332Z,3.34
2023-03-08T17:41:56.036Z,3.45
2023-03-08T17:46:57.710Z,3.44
2023-03-08T17:51:59.602Z,3.48
2023-03-08T17:57:01.444Z,3.25
2023-03-08T18:02:03.257Z,3.23
2023-03-08T18:07:06.015Z,3.26
2023-03-08T18:12:11.655Z,3.27
2023-03-08T18:17:13.343Z,3.27
2023-03-08T18:22:15.644Z,3.51
2023-03-08T18:27:17.303Z,3.32
2023-03-08T18:32:19.060Z,3.26
2023-03-08T18:37:20.747Z,3.23
2023-03-08T18:42:22.402Z,3.24
2023-03-08T18:47:24.094Z,3.15
2023-03-08T18:52:25.860Z,3.10
2023-03-08T18:57:27.479Z,3.09
2023-03-08T19:02:29.264Z,3.19
2023-03-08T19:07:31.002Z,3.33
2023-03-08T19:12:33.736Z,3.23
2023-03-08T19:17:35.561Z,3.16
2023-03-08T19:22:37.967Z,3.15
2023-03-08T19:27:39.606Z,3.31
2023-03-08T19:32:42.723Z,3.31
2023-03-08T19:37:44.522Z,3.31
2023-03-08T19:42:46.316Z,3.28
2023-03-08T19:47:49.516Z,3.36
2023-03-08T19:52:51.181Z,3.16
2023-03-08T19:57:52.829Z,3.04
2023-03-08T20:02:54.711Z,3.06
2023-03-08T20:07:56.324Z,3.05
2023-03-08T20:12:58.018Z,2.85
2023-03-08T20:17:59.892Z,2.76
2023-03-08T20:23:01.534Z,2.98
2023-03-08T20:28:03.429Z,2.95
2023-03-08T20:33:05.554Z,2.83
2023-03-08T20:38:07.228Z,2.71
2023-03-08T20:43:11.016Z,2.68
2023-03-08T20:48:12.602Z,2.60
2023-03-08T20:53:14.623Z,2.49
2023-03-08T20:58:16.241Z,2.38
2023-03-08T21:03:18.107Z,2.38
2023-03-08T21:08:20.039Z,2.35
2023-03-08T21:13:21.687Z,2.41
2023-03-08T21:18:23.369Z,2.48
2023-03-08T21:23:25.572Z,2.45
2023-03-08T21:28:27.216Z,2.38
2023-03-08T21:33:28.839Z,2.18
2023-03-08T21:38:30.529Z,2.22
2023-03-08T21:43:32.293Z,2.32
2023-03-08T21:48:34.038Z,2.12
2023-03-08T21:53:35.811Z,2.11
2023-03-08T21:58:37.992Z,2.02
2023-03-08T22:03:39.873Z,2.13
2023-03-08T22:08:41.569Z,2.26
2023-03-08T22:13:43.408Z,2.33
2023-03-08T22:18:45.932Z,1.97
2023-03-08T22:23:55.523Z,2.18
2023-03-08T22:28:57.269Z,2.07
2023-03-08T22:33:58.911Z,2.05
2023-03-08T22:39:00.547Z,2.12
2023-03-08T22:44:04.120Z,2.10
2023-03-08T22:49:07.290Z,2.31
2023-03-08T22:54:15.729Z,2.00
2023-03-08T22:59:17.827Z,2.01
2023-03-08T23:04:20.237Z,1.94
2023-03-08T23:09:22.293Z,1.93
2023-03-08T23:14:23.992Z,1.86
2023-03-08T23:19:25.813Z,1.82
2023-03-08T23:24:27.425Z,2.32
2023-03-08T23:29:29.154Z,2.36
2023-03-08T23:34:30.820Z,2.13
2023-03-08T23:39:34.029Z,2.04
2023-03-08T23:44:35.837Z,2.27
2023-03-08T23:49:37.593Z,2.16
2023-03-08T23:54:39.346Z,2.18
2023-03-08T23:59:40.988Z,1.95
